sensor_id;sensor_type;location;lat;lon;timestamp;P1;durP1;ratioP1;P2;durP2;ratioP2
64061;SDS011;50308;47.438;-1.528;2023-04-03T00:00:30;4.50;;;3.63;;
64061;SDS011;50308;47.438;-1.528;2023-04-03T00:02:56;4.03;;;2.97;;
64061;SDS011;50308;47.438;-1.528;2023-04-03T00:05:22;6.53;;;3.08;;
64061;SDS011;50308;47.438;-1.528;2023-04-03T00:07:48;5.30;;;2.70;;
64061;SDS011;50308;47.438;-1.528;2023-04-03T00:10:14;4.85;;;3.22;;
64061;SDS011;50308;47.438;-1.528;2023-04-03T00:12:41;4.28;;;2.85;;
64061;SDS011;50308;47.438;-1.528;2023-04-03T00:15:07;4.53;;;3.50;;
64061;SDS011;50308;47.438;-1.528;2023-04-03T00:17:33;4.10;;;2.70;;
64061;SDS011;50308;47.438;-1.528;2023-04-03T00:19:58;4.28;;;3.22;;
64061;SDS011;50308;47.438;-1.528;2023-04-03T00:22:24;5.70;;;3.10;;
64061;SDS011;50308;47.438;-1.528;2023-04-03T00:24:51;4.82;;;3.33;;
64061;SDS011;50308;47.438;-1.528;2023-04-03T00:27:17;6.30;;;3.05;;
64061;SDS011;50308;47.438;-1.528;2023-04-03T00:29:43;4.75;;;3.20;;
64061;SDS011;50308;47.438;-1.528;2023-04-03T00:32:08;4.95;;;3.30;;
64061;SDS011;50308;47.438;-1.528;2023-04-03T00:34:34;5.15;;;3.15;;
64061;SDS011;50308;47.438;-1.528;2023-04-03T00:37:00;5.38;;;3.22;;
64061;SDS011;50308;47.438;-1.528;2023-04-03T00:39:25;7.57;;;3.20;;
64061;SDS011;50308;47.438;-1.528;2023-04-03T00:41:51;6.65;;;3.22;;
64061;SDS011;50308;47.438;-1.528;2023-04-03T00:47:11;6.00;;;2.88;;
64061;SDS011;50308;47.438;-1.528;2023-04-03T00:49:38;6.88;;;3.58;;
64061;SDS011;50308;47.438;-1.528;2023-04-03T00:52:05;4.18;;;3.20;;
64061;SDS011;50308;47.438;-1.528;2023-04-03T00:54:37;7.38;;;3.33;;
64061;SDS011;50308;47.438;-1.528;2023-04-03T00:57:05;8.57;;;3.05;;
64061;SDS011;50308;47.438;-1.528;2023-04-03T00:59:34;6.18;;;3.15;;
64061;SDS011;50308;47.438;-1.528;2023-04-03T01:04:33;6.20;;;3.38;;
64061;SDS011;50308;47.438;-1.528;2023-04-03T01:07:06;6.35;;;3.35;;
64061;SDS011;50308;47.438;-1.528;2023-04-03T01:09:32;4.35;;;2.50;;
64061;SDS011;50308;47.438;-1.528;2023-04-03T01:12:21;4.30;;;2.72;;
64061;SDS011;50308;47.438;-1.528;2023-04-03T01:14:45;9.15;;;3.50;;
64061;SDS011;50308;47.438;-1.528;2023-04-03T01:28:18;8.50;;;3.38;;
64061;SDS011;50308;47.438;-1.528;2023-04-03T01:33:35;9.80;;;3.05;;
64061;SDS011;50308;47.438;-1.528;2023-04-03T01:36:02;7.82;;;3.20;;
64061;SDS011;50308;47.438;-1.528;2023-04-03T01:38:29;4.40;;;2.83;;
64061;SDS011;50308;47.438;-1.528;2023-04-03T01:40:55;9.38;;;3.47;;
64061;SDS011;50308;47.438;-1.528;2023-04-03T01:43:21;9.45;;;3.83;;
64061;SDS011;50308;47.438;-1.528;2023-04-03T01:45:46;5.05;;;2.42;;
64061;SDS011;50308;47.438;-1.528;2023-04-03T01:48:14;11.60;;;2.90;;
64061;SDS011;50308;47.438;-1.528;2023-04-03T01:50:40;6.28;;;2.90;;
64061;SDS011;50308;47.438;-1.528;2023-04-03T01:53:06;9.07;;;3.17;;
64061;SDS011;50308;47.438;-1.528;2023-04-03T01:55:32;5.55;;;2.72;;
64061;SDS011;50308;47.438;-1.528;2023-04-03T01:57:58;5.57;;;2.50;;
64061;SDS011;50308;47.438;-1.528;2023-04-03T02:00:24;4.65;;;2.60;;
64061;SDS011;50308;47.438;-1.528;2023-04-03T02:02:49;9.07;;;2.75;;
64061;SDS011;50308;47.438;-1.528;2023-04-03T02:05:15;5.00;;;2.38;;
64061;SDS011;50308;47.438;-1.528;2023-04-03T02:07:41;7.18;;;3.00;;
64061;SDS011;50308;47.438;-1.528;2023-04-03T02:10:07;4.63;;;2.25;;
64061;SDS011;50308;47.438;-1.528;2023-04-03T02:12:32;6.00;;;2.55;;
64061;SDS011;50308;47.438;-1.528;2023-04-03T02:14:58;9.57;;;2.30;;
64061;SDS011;50308;47.438;-1.528;2023-04-03T02:17:24;5.75;;;2.65;;
64061;SDS011;50308;47.438;-1.528;2023-04-03T02:19:50;4.95;;;2.63;;
64061;SDS011;50308;47.438;-1.528;2023-04-03T02:22:15;5.30;;;2.38;;
64061;SDS011;50308;47.438;-1.528;2023-04-03T02:24:41;7.07;;;2.90;;
64061;SDS011;50308;47.438;-1.528;2023-04-03T02:27:07;5.95;;;2.55;;
64061;SDS011;50308;47.438;-1.528;2023-04-03T02:29:32;6.22;;;2.28;;
64061;SDS011;50308;47.438;-1.528;2023-04-03T02:31:58;6.80;;;2.38;;
64061;SDS011;50308;47.438;-1.528;2023-04-03T02:34:24;5.25;;;2.65;;
64061;SDS011;50308;47.438;-1.528;2023-04-03T02:36:49;6.15;;;2.40;;
64061;SDS011;50308;47.438;-1.528;2023-04-03T02:39:15;10.13;;;3.38;;
64061;SDS011;50308;47.438;-1.528;2023-04-03T02:41:41;5.97;;;2.13;;
64061;SDS011;50308;47.438;-1.528;2023-04-03T02:44:08;4.35;;;2.50;;
64061;SDS011;50308;47.438;-1.528;2023-04-03T02:46:35;5.55;;;2.33;;
64061;SDS011;50308;47.438;-1.528;2023-04-03T02:49:01;5.22;;;2.20;;
64061;SDS011;50308;47.438;-1.528;2023-04-03T02:51:27;10.52;;;2.42;;
64061;SDS011;50308;47.438;-1.528;2023-04-03T02:53:52;5.97;;;2.65;;
64061;SDS011;50308;47.438;-1.528;2023-04-03T02:56:18;10.05;;;2.17;;
64061;SDS011;50308;47.438;-1.528;2023-04-03T02:58:45;7.93;;;3.38;;
64061;SDS011;50308;47.438;-1.528;2023-04-03T03:01:11;7.10;;;2.40;;
64061;SDS011;50308;47.438;-1.528;2023-04-03T03:03:37;6.63;;;2.25;;
64061;SDS011;50308;47.438;-1.528;2023-04-03T03:06:10;7.90;;;2.00;;
64061;SDS011;50308;47.438;-1.528;2023-04-03T03:08:37;4.05;;;2.30;;
64061;SDS011;50308;47.438;-1.528;2023-04-03T03:11:03;5.00;;;2.15;;
64061;SDS011;50308;47.438;-1.528;2023-04-03T03:13:29;4.82;;;2.05;;
64061;SDS011;50308;47.438;-1.528;2023-04-03T03:15:55;6.07;;;2.10;;
64061;SDS011;50308;47.438;-1.528;2023-04-03T03:18:21;8.80;;;2.65;;
64061;SDS011;50308;47.438;-1.528;2023-04-03T03:20:51;5.15;;;2.40;;
64061;SDS011;50308;47.438;-1.528;2023-04-03T03:23:18;9.32;;;2.72;;
64061;SDS011;50308;47.438;-1.528;2023-04-03T03:25:44;5.47;;;2.22;;
64061;SDS011;50308;47.438;-1.528;2023-04-03T03:28:10;5.15;;;2.97;;
64061;SDS011;50308;47.438;-1.528;2023-04-03T03:30:36;5.65;;;2.00;;
64061;SDS011;50308;47.438;-1.528;2023-04-03T03:33:02;6.22;;;2.38;;
64061;SDS011;50308;47.438;-1.528;2023-04-03T03:35:28;3.83;;;2.00;;
64061;SDS011;50308;47.438;-1.528;2023-04-03T03:37:54;4.88;;;2.08;;
64061;SDS011;50308;47.438;-1.528;2023-04-03T03:40:20;7.93;;;2.40;;
64061;SDS011;50308;47.438;-1.528;2023-04-03T03:42:45;9.75;;;3.13;;
64061;SDS011;50308;47.438;-1.528;2023-04-03T03:45:11;3.65;;;2.20;;
64061;SDS011;50308;47.438;-1.528;2023-04-03T03:47:37;6.80;;;2.58;;
64061;SDS011;50308;47.438;-1.528;2023-04-03T03:50:03;6.18;;;2.50;;
64061;SDS011;50308;47.438;-1.528;2023-04-03T03:52:29;4.82;;;2.33;;
64061;SDS011;50308;47.438;-1.528;2023-04-03T03:54:55;6.57;;;2.67;;
64061;SDS011;50308;47.438;-1.528;2023-04-03T03:57:21;7.68;;;2.80;;
64061;SDS011;50308;47.438;-1.528;2023-04-03T03:59:46;6.85;;;2.63;;
64061;SDS011;50308;47.438;-1.528;2023-04-03T04:02:13;4.25;;;2.45;;
64061;SDS011;50308;47.438;-1.528;2023-04-03T04:04:40;7.00;;;2.53;;
64061;SDS011;50308;47.438;-1.528;2023-04-03T04:07:05;6.00;;;2.50;;
64061;SDS011;50308;47.438;-1.528;2023-04-03T04:09:31;10.88;;;2.90;;
64061;SDS011;50308;47.438;-1.528;2023-04-03T04:11:57;5.90;;;2.53;;
64061;SDS011;50308;47.438;-1.528;2023-04-03T04:14:22;4.47;;;2.53;;
64061;SDS011;50308;47.438;-1.528;2023-04-03T04:16:48;7.10;;;2.90;;
64061;SDS011;50308;47.438;-1.528;2023-04-03T04:19:14;5.75;;;2.33;;
64061;SDS011;50308;47.438;-1.528;2023-04-03T04:21:40;6.28;;;2.80;;
64061;SDS011;50308;47.438;-1.528;2023-04-03T04:24:06;4.75;;;2.35;;
64061;SDS011;50308;47.438;-1.528;2023-04-03T04:26:33;5.13;;;2.55;;
64061;SDS011;50308;47.438;-1.528;2023-04-03T04:28:59;4.53;;;2.33;;
64061;SDS011;50308;47.438;-1.528;2023-04-03T04:31:24;7.32;;;2.80;;
64061;SDS011;50308;47.438;-1.528;2023-04-03T04:33:50;5.18;;;2.30;;
64061;SDS011;50308;47.438;-1.528;2023-04-03T04:36:16;8.15;;;2.70;;
64061;SDS011;50308;47.438;-1.528;2023-04-03T04:38:42;6.15;;;2.50;;
64061;SDS011;50308;47.438;-1.528;2023-04-03T04:41:08;8.73;;;2.90;;
64061;SDS011;50308;47.438;-1.528;2023-04-03T04:43:33;7.35;;;3.15;;
64061;SDS011;50308;47.438;-1.528;2023-04-03T04:48:32;6.97;;;3.28;;
64061;SDS011;50308;47.438;-1.528;2023-04-03T04:50:59;6.72;;;2.47;;
64061;SDS011;50308;47.438;-1.528;2023-04-03T04:53:25;5.82;;;2.80;;
64061;SDS011;50308;47.438;-1.528;2023-04-03T04:55:51;5.45;;;2.65;;
64061;SDS011;50308;47.438;-1.528;2023-04-03T04:58:17;5.78;;;2.75;;
64061;SDS011;50308;47.438;-1.528;2023-04-03T05:00:43;6.68;;;2.92;;
64061;SDS011;50308;47.438;-1.528;2023-04-03T05:03:09;5.60;;;2.63;;
64061;SDS011;50308;47.438;-1.528;2023-04-03T05:05:34;4.70;;;2.60;;
64061;SDS011;50308;47.438;-1.528;2023-04-03T05:08:00;7.70;;;3.33;;
64061;SDS011;50308;47.438;-1.528;2023-04-03T05:10:27;7.43;;;3.20;;
64061;SDS011;50308;47.438;-1.528;2023-04-03T05:12:53;9.02;;;3.10;;
64061;SDS011;50308;47.438;-1.528;2023-04-03T05:15:19;5.93;;;2.40;;
64061;SDS011;50308;47.438;-1.528;2023-04-03T05:17:45;6.00;;;2.65;;
64061;SDS011;50308;47.438;-1.528;2023-04-03T05:20:11;4.47;;;2.53;;
64061;SDS011;50308;47.438;-1.528;2023-04-03T05:22:37;7.90;;;3.10;;
64061;SDS011;50308;47.438;-1.528;2023-04-03T05:25:03;5.18;;;3.03;;
64061;SDS011;50308;47.438;-1.528;2023-04-03T05:27:30;6.15;;;3.25;;
64061;SDS011;50308;47.438;-1.528;2023-04-03T05:29:55;4.90;;;3.10;;
64061;SDS011;50308;47.438;-1.528;2023-04-03T05:32:22;7.13;;;3.08;;
64061;SDS011;50308;47.438;-1.528;2023-04-03T05:34:48;7.82;;;3.17;;
64061;SDS011;50308;47.438;-1.528;2023-04-03T05:37:14;7.35;;;3.22;;
64061;SDS011;50308;47.438;-1.528;2023-04-03T05:39:40;5.97;;;3.15;;
64061;SDS011;50308;47.438;-1.528;2023-04-03T05:42:06;8.38;;;3.25;;
64061;SDS011;50308;47.438;-1.528;2023-04-03T05:44:32;4.72;;;2.97;;
64061;SDS011;50308;47.438;-1.528;2023-04-03T05:46:58;5.13;;;2.90;;
64061;SDS011;50308;47.438;-1.528;2023-04-03T05:49:24;5.90;;;3.05;;
64061;SDS011;50308;47.438;-1.528;2023-04-03T05:51:50;6.05;;;3.40;;
64061;SDS011;50308;47.438;-1.528;2023-04-03T05:54:24;5.78;;;3.08;;
64061;SDS011;50308;47.438;-1.528;2023-04-03T05:56:52;5.78;;;4.22;;
64061;SDS011;50308;47.438;-1.528;2023-04-03T05:59:18;11.20;;;4.30;;
64061;SDS011;50308;47.438;-1.528;2023-04-03T06:01:45;4.68;;;3.17;;
64061;SDS011;50308;47.438;-1.528;2023-04-03T06:04:11;6.10;;;3.50;;
64061;SDS011;50308;47.438;-1.528;2023-04-03T06:09:10;9.35;;;3.38;;
64061;SDS011;50308;47.438;-1.528;2023-04-03T06:11:36;6.07;;;3.67;;
64061;SDS011;50308;47.438;-1.528;2023-04-03T06:14:02;4.97;;;3.47;;
64061;SDS011;50308;47.438;-1.528;2023-04-03T06:16:28;6.93;;;3.78;;
64061;SDS011;50308;47.438;-1.528;2023-04-03T06:18:54;6.90;;;3.70;;
64061;SDS011;50308;47.438;-1.528;2023-04-03T06:21:20;7.15;;;4.13;;
64061;SDS011;50308;47.438;-1.528;2023-04-03T06:23:45;5.43;;;3.30;;
64061;SDS011;50308;47.438;-1.528;2023-04-03T06:26:11;7.35;;;4.20;;
64061;SDS011;50308;47.438;-1.528;2023-04-03T06:28:37;6.32;;;4.18;;
64061;SDS011;50308;47.438;-1.528;2023-04-03T06:31:02;6.03;;;4.00;;
64061;SDS011;50308;47.438;-1.528;2023-04-03T06:33:28;8.30;;;4.55;;
64061;SDS011;50308;47.438;-1.528;2023-04-03T06:35:57;5.32;;;4.10;;
64061;SDS011;50308;47.438;-1.528;2023-04-03T06:38:23;9.75;;;5.30;;
64061;SDS011;50308;47.438;-1.528;2023-04-03T06:40:49;9.18;;;4.72;;
64061;SDS011;50308;47.438;-1.528;2023-04-03T06:43:16;11.07;;;5.82;;
64061;SDS011;50308;47.438;-1.528;2023-04-03T06:45:42;9.13;;;4.97;;
64061;SDS011;50308;47.438;-1.528;2023-04-03T06:48:08;12.00;;;5.20;;
64061;SDS011;50308;47.438;-1.528;2023-04-03T06:50:34;7.32;;;4.95;;
64061;SDS011;50308;47.438;-1.528;2023-04-03T06:53:00;11.93;;;5.40;;
64061;SDS011;50308;47.438;-1.528;2023-04-03T06:55:26;10.48;;;4.80;;
64061;SDS011;50308;47.438;-1.528;2023-04-03T06:57:52;9.98;;;4.43;;
64061;SDS011;50308;47.438;-1.528;2023-04-03T07:00:17;7.93;;;5.15;;
64061;SDS011;50308;47.438;-1.528;2023-04-03T07:02:44;6.82;;;4.30;;
64061;SDS011;50308;47.438;-1.528;2023-04-03T07:05:10;11.13;;;4.75;;
64061;SDS011;50308;47.438;-1.528;2023-04-03T07:07:36;12.48;;;5.25;;
64061;SDS011;50308;47.438;-1.528;2023-04-03T07:10:03;8.93;;;4.30;;
64061;SDS011;50308;47.438;-1.528;2023-04-03T07:12:29;13.55;;;6.03;;
64061;SDS011;50308;47.438;-1.528;2023-04-03T07:14:55;7.60;;;5.05;;
64061;SDS011;50308;47.438;-1.528;2023-04-03T07:17:21;8.55;;;5.60;;
64061;SDS011;50308;47.438;-1.528;2023-04-03T07:19:46;15.93;;;6.60;;
64061;SDS011;50308;47.438;-1.528;2023-04-03T07:22:12;13.05;;;6.03;;
64061;SDS011;50308;47.438;-1.528;2023-04-03T07:24:38;9.50;;;6.30;;
64061;SDS011;50308;47.438;-1.528;2023-04-03T07:27:03;8.57;;;6.78;;
64061;SDS011;50308;47.438;-1.528;2023-04-03T07:29:29;9.45;;;5.68;;
64061;SDS011;50308;47.438;-1.528;2023-04-03T07:31:55;9.90;;;5.22;;
64061;SDS011;50308;47.438;-1.528;2023-04-03T07:34:21;10.48;;;5.80;;
64061;SDS011;50308;47.438;-1.528;2023-04-03T07:36:46;8.38;;;5.65;;
64061;SDS011;50308;47.438;-1.528;2023-04-03T07:39:12;10.50;;;5.57;;
64061;SDS011;50308;47.438;-1.528;2023-04-03T07:41:38;8.40;;;6.45;;
64061;SDS011;50308;47.438;-1.528;2023-04-03T07:44:04;10.82;;;5.70;;
64061;SDS011;50308;47.438;-1.528;2023-04-03T07:46:30;12.48;;;6.45;;
64061;SDS011;50308;47.438;-1.528;2023-04-03T07:48:56;14.07;;;6.88;;
64061;SDS011;50308;47.438;-1.528;2023-04-03T07:51:22;14.75;;;6.40;;
64061;SDS011;50308;47.438;-1.528;2023-04-03T07:53:49;13.65;;;6.35;;
64061;SDS011;50308;47.438;-1.528;2023-04-03T07:56:15;12.07;;;6.53;;
64061;SDS011;50308;47.438;-1.528;2023-04-03T07:58:42;12.50;;;7.07;;
64061;SDS011;50308;47.438;-1.528;2023-04-03T08:01:07;15.10;;;6.78;;
64061;SDS011;50308;47.438;-1.528;2023-04-03T08:03:33;13.57;;;6.45;;
64061;SDS011;50308;47.438;-1.528;2023-04-03T08:06:06;15.18;;;6.28;;
64061;SDS011;50308;47.438;-1.528;2023-04-03T08:08:33;10.05;;;6.57;;
64061;SDS011;50308;47.438;-1.528;2023-04-03T08:11:00;10.73;;;7.03;;
64061;SDS011;50308;47.438;-1.528;2023-04-03T08:13:27;14.27;;;6.47;;
64061;SDS011;50308;47.438;-1.528;2023-04-03T08:15:54;12.43;;;6.68;;
64061;SDS011;50308;47.438;-1.528;2023-04-03T08:18:22;13.48;;;6.30;;
64061;SDS011;50308;47.438;-1.528;2023-04-03T08:20:49;14.63;;;6.43;;
64061;SDS011;50308;47.438;-1.528;2023-04-03T08:23:16;12.23;;;7.22;;
64061;SDS011;50308;47.438;-1.528;2023-04-03T08:25:42;13.95;;;6.75;;
64061;SDS011;50308;47.438;-1.528;2023-04-03T08:28:09;12.60;;;7.05;;
64061;SDS011;50308;47.438;-1.528;2023-04-03T08:30:38;10.80;;;6.63;;
64061;SDS011;50308;47.438;-1.528;2023-04-03T08:33:05;12.02;;;6.85;;
64061;SDS011;50308;47.438;-1.528;2023-04-03T08:35:31;13.20;;;7.05;;
64061;SDS011;50308;47.438;-1.528;2023-04-03T08:37:56;12.32;;;6.95;;
64061;SDS011;50308;47.438;-1.528;2023-04-03T08:40:22;15.25;;;6.55;;
64061;SDS011;50308;47.438;-1.528;2023-04-03T08:45:49;15.43;;;7.22;;
64061;SDS011;50308;47.438;-1.528;2023-04-03T08:48:21;16.05;;;7.63;;
64061;SDS011;50308;47.438;-1.528;2023-04-03T08:51:03;13.35;;;6.60;;
64061;SDS011;50308;47.438;-1.528;2023-04-03T08:53:36;15.05;;;7.28;;
64061;SDS011;50308;47.438;-1.528;2023-04-03T08:56:08;17.02;;;7.25;;
64061;SDS011;50308;47.438;-1.528;2023-04-03T08:58:57;14.13;;;7.03;;
64061;SDS011;50308;47.438;-1.528;2023-04-03T09:01:27;12.75;;;6.57;;
64061;SDS011;50308;47.438;-1.528;2023-04-03T09:04:00;16.13;;;8.35;;
64061;SDS011;50308;47.438;-1.528;2023-04-03T09:06:28;19.50;;;8.77;;
64061;SDS011;50308;47.438;-1.528;2023-04-03T09:22:46;19.52;;;8.48;;
64061;SDS011;50308;47.438;-1.528;2023-04-03T09:25:23;19.98;;;8.60;;
64061;SDS011;50308;47.438;-1.528;2023-04-03T09:28:00;25.95;;;9.30;;
64061;SDS011;50308;47.438;-1.528;2023-04-03T09:30:27;19.42;;;8.60;;
64061;SDS011;50308;47.438;-1.528;2023-04-03T09:32:54;21.20;;;9.27;;
64061;SDS011;50308;47.438;-1.528;2023-04-03T09:40:36;21.67;;;8.70;;
64061;SDS011;50308;47.438;-1.528;2023-04-03T09:45:43;17.20;;;8.15;;
64061;SDS011;50308;47.438;-1.528;2023-04-03T09:58:42;23.83;;;8.35;;
64061;SDS011;50308;47.438;-1.528;2023-04-03T10:01:32;25.05;;;9.32;;
64061;SDS011;50308;47.438;-1.528;2023-04-03T10:04:07;21.48;;;8.25;;
64061;SDS011;50308;47.438;-1.528;2023-04-03T10:06:42;20.98;;;8.05;;
64061;SDS011;50308;47.438;-1.528;2023-04-03T10:09:20;22.65;;;8.63;;
64061;SDS011;50308;47.438;-1.528;2023-04-03T10:12:11;23.98;;;8.52;;
64061;SDS011;50308;47.438;-1.528;2023-04-03T10:14:40;29.52;;;8.73;;
64061;SDS011;50308;47.438;-1.528;2023-04-03T10:23:18;27.58;;;9.00;;
64061;SDS011;50308;47.438;-1.528;2023-04-03T10:28:48;25.77;;;8.95;;
64061;SDS011;50308;47.438;-1.528;2023-04-03T10:31:55;28.57;;;9.17;;
64061;SDS011;50308;47.438;-1.528;2023-04-03T10:34:43;23.05;;;8.75;;
64061;SDS011;50308;47.438;-1.528;2023-04-03T10:39:54;21.77;;;8.93;;
64061;SDS011;50308;47.438;-1.528;2023-04-03T10:55:42;27.20;;;8.98;;
64061;SDS011;50308;47.438;-1.528;2023-04-03T10:58:36;34.25;;;11.40;;
64061;SDS011;50308;47.438;-1.528;2023-04-03T11:01:06;28.50;;;10.85;;
64061;SDS011;50308;47.438;-1.528;2023-04-03T11:03:40;28.88;;;10.20;;
64061;SDS011;50308;47.438;-1.528;2023-04-03T11:06:11;24.55;;;10.30;;
64061;SDS011;50308;47.438;-1.528;2023-04-03T11:11:34;27.65;;;9.18;;
64061;SDS011;50308;47.438;-1.528;2023-04-03T11:14:04;24.65;;;8.77;;
64061;SDS011;50308;47.438;-1.528;2023-04-03T11:16:36;29.42;;;11.10;;
64061;SDS011;50308;47.438;-1.528;2023-04-03T11:21:56;26.20;;;9.63;;
64061;SDS011;50308;47.438;-1.528;2023-04-03T11:24:31;22.88;;;9.57;;
64061;SDS011;50308;47.438;-1.528;2023-04-03T11:26:59;23.90;;;10.00;;
64061;SDS011;50308;47.438;-1.528;2023-04-03T11:29:32;25.15;;;9.90;;
64061;SDS011;50308;47.438;-1.528;2023-04-03T11:34:56;21.00;;;8.65;;
64061;SDS011;50308;47.438;-1.528;2023-04-03T11:39:58;27.63;;;9.77;;
64061;SDS011;50308;47.438;-1.528;2023-04-03T11:42:39;26.48;;;10.18;;
64061;SDS011;50308;47.438;-1.528;2023-04-03T11:47:53;28.00;;;10.13;;
64061;SDS011;50308;47.438;-1.528;2023-04-03T11:50:39;22.90;;;9.90;;
64061;SDS011;50308;47.438;-1.528;2023-04-03T11:58:16;25.67;;;9.63;;
64061;SDS011;50308;47.438;-1.528;2023-04-03T12:08:51;28.60;;;10.90;;
64061;SDS011;50308;47.438;-1.528;2023-04-03T12:13:41;23.15;;;9.63;;
64061;SDS011;50308;47.438;-1.528;2023-04-03T12:19:03;19.48;;;8.63;;
64061;SDS011;50308;47.438;-1.528;2023-04-03T12:24:27;24.73;;;10.00;;
64061;SDS011;50308;47.438;-1.528;2023-04-03T12:32:11;23.80;;;9.43;;
64061;SDS011;50308;47.438;-1.528;2023-04-03T12:40:57;21.95;;;8.82;;
64061;SDS011;50308;47.438;-1.528;2023-04-03T12:46:39;17.80;;;8.27;;
64061;SDS011;50308;47.438;-1.528;2023-04-03T12:51:54;19.92;;;8.95;;
64061;SDS011;50308;47.438;-1.528;2023-04-03T12:54:27;24.52;;;10.68;;
64061;SDS011;50308;47.438;-1.528;2023-04-03T12:59:36;16.65;;;9.50;;
64061;SDS011;50308;47.438;-1.528;2023-04-03T13:02:03;20.55;;;8.85;;
64061;SDS011;50308;47.438;-1.528;2023-04-03T13:04:42;18.40;;;8.70;;
64061;SDS011;50308;47.438;-1.528;2023-04-03T13:07:18;15.77;;;8.45;;
64061;SDS011;50308;47.438;-1.528;2023-04-03T13:10:00;18.15;;;7.93;;
64061;SDS011;50308;47.438;-1.528;2023-04-03T13:12:33;14.45;;;7.75;;
64061;SDS011;50308;47.438;-1.528;2023-04-03T13:15:19;15.73;;;7.63;;
64061;SDS011;50308;47.438;-1.528;2023-04-03T13:17:51;17.00;;;7.18;;
64061;SDS011;50308;47.438;-1.528;2023-04-03T13:25:31;13.27;;;7.15;;
64061;SDS011;50308;47.438;-1.528;2023-04-03T13:27:59;15.88;;;6.38;;
64061;SDS011;50308;47.438;-1.528;2023-04-03T13:30:27;17.35;;;6.40;;
64061;SDS011;50308;47.438;-1.528;2023-04-03T13:32:55;16.05;;;7.13;;
64061;SDS011;50308;47.438;-1.528;2023-04-03T13:43:24;16.45;;;6.97;;
64061;SDS011;50308;47.438;-1.528;2023-04-03T13:48:40;15.07;;;7.10;;
64061;SDS011;50308;47.438;-1.528;2023-04-03T13:53:46;19.77;;;7.03;;
64061;SDS011;50308;47.438;-1.528;2023-04-03T13:56:36;14.43;;;7.28;;
64061;SDS011;50308;47.438;-1.528;2023-04-03T14:01:48;12.45;;;5.78;;
64061;SDS011;50308;47.438;-1.528;2023-04-03T14:04:19;16.58;;;7.55;;
64061;SDS011;50308;47.438;-1.528;2023-04-03T14:06:51;15.88;;;6.45;;
64061;SDS011;50308;47.438;-1.528;2023-04-03T14:09:17;14.57;;;5.75;;
64061;SDS011;50308;47.438;-1.528;2023-04-03T14:11:44;15.52;;;6.30;;
64061;SDS011;50308;47.438;-1.528;2023-04-03T14:14:12;16.20;;;6.65;;
64061;SDS011;50308;47.438;-1.528;2023-04-03T14:16:42;13.95;;;7.50;;
64061;SDS011;50308;47.438;-1.528;2023-04-03T14:19:15;17.40;;;6.65;;
64061;SDS011;50308;47.438;-1.528;2023-04-03T14:21:47;12.63;;;6.40;;
64061;SDS011;50308;47.438;-1.528;2023-04-03T14:24:13;16.10;;;6.57;;
64061;SDS011;50308;47.438;-1.528;2023-04-03T14:26:39;13.00;;;5.90;;
64061;SDS011;50308;47.438;-1.528;2023-04-03T14:29:06;15.10;;;6.65;;
64061;SDS011;50308;47.438;-1.528;2023-04-03T14:31:31;18.58;;;6.65;;
64061;SDS011;50308;47.438;-1.528;2023-04-03T14:33:57;13.68;;;6.55;;
64061;SDS011;50308;47.438;-1.528;2023-04-03T14:36:25;14.05;;;6.55;;
64061;SDS011;50308;47.438;-1.528;2023-04-03T14:38:52;12.77;;;6.32;;
64061;SDS011;50308;47.438;-1.528;2023-04-03T14:41:19;13.30;;;5.40;;
64061;SDS011;50308;47.438;-1.528;2023-04-03T14:43:47;10.02;;;5.32;;
64061;SDS011;50308;47.438;-1.528;2023-04-03T14:48:42;13.07;;;5.90;;
64061;SDS011;50308;47.438;-1.528;2023-04-03T14:51:10;13.27;;;6.40;;
64061;SDS011;50308;47.438;-1.528;2023-04-03T14:53:36;18.05;;;6.65;;
64061;SDS011;50308;47.438;-1.528;2023-04-03T14:56:04;12.45;;;5.45;;
64061;SDS011;50308;47.438;-1.528;2023-04-03T14:58:36;14.35;;;5.78;;
64061;SDS011;50308;47.438;-1.528;2023-04-03T15:01:02;14.23;;;6.35;;
64061;SDS011;50308;47.438;-1.528;2023-04-03T15:03:27;13.63;;;5.35;;
64061;SDS011;50308;47.438;-1.528;2023-04-03T15:05:53;11.82;;;5.13;;
64061;SDS011;50308;47.438;-1.528;2023-04-03T15:08:23;10.45;;;4.93;;
64061;SDS011;50308;47.438;-1.528;2023-04-03T15:10:50;12.82;;;5.63;;
64061;SDS011;50308;47.438;-1.528;2023-04-03T15:13:20;15.18;;;6.68;;
64061;SDS011;50308;47.438;-1.528;2023-04-03T15:15:46;9.25;;;5.28;;
64061;SDS011;50308;47.438;-1.528;2023-04-03T15:18:15;11.13;;;5.75;;
64061;SDS011;50308;47.438;-1.528;2023-04-03T15:20:45;13.82;;;5.88;;
64061;SDS011;50308;47.438;-1.528;2023-04-03T15:23:12;13.75;;;6.00;;
64061;SDS011;50308;47.438;-1.528;2023-04-03T15:25:40;11.30;;;5.15;;
64061;SDS011;50308;47.438;-1.528;2023-04-03T15:28:43;13.48;;;6.00;;
64061;SDS011;50308;47.438;-1.528;2023-04-03T15:31:06;10.18;;;5.18;;
64061;SDS011;50308;47.438;-1.528;2023-04-03T15:33:32;13.98;;;6.07;;
64061;SDS011;50308;47.438;-1.528;2023-04-03T15:35:59;11.80;;;5.38;;
64061;SDS011;50308;47.438;-1.528;2023-04-03T15:38:25;13.70;;;6.03;;
64061;SDS011;50308;47.438;-1.528;2023-04-03T15:40:51;11.18;;;5.85;;
64061;SDS011;50308;47.438;-1.528;2023-04-03T15:43:18;11.25;;;5.53;;
64061;SDS011;50308;47.438;-1.528;2023-04-03T15:45:44;10.63;;;5.40;;
64061;SDS011;50308;47.438;-1.528;2023-04-03T15:48:11;11.32;;;5.80;;
64061;SDS011;50308;47.438;-1.528;2023-04-03T15:50:37;10.60;;;5.38;;
64061;SDS011;50308;47.438;-1.528;2023-04-03T15:53:04;11.75;;;5.47;;
64061;SDS011;50308;47.438;-1.528;2023-04-03T15:55:31;11.68;;;6.20;;
64061;SDS011;50308;47.438;-1.528;2023-04-03T15:57:59;11.43;;;6.00;;
64061;SDS011;50308;47.438;-1.528;2023-04-03T16:00:26;11.00;;;5.90;;
64061;SDS011;50308;47.438;-1.528;2023-04-03T16:02:53;10.57;;;5.90;;
64061;SDS011;50308;47.438;-1.528;2023-04-03T16:07:49;14.40;;;5.80;;
64061;SDS011;50308;47.438;-1.528;2023-04-03T16:10:16;14.18;;;6.55;;
64061;SDS011;50308;47.438;-1.528;2023-04-03T16:12:43;15.38;;;6.47;;
64061;SDS011;50308;47.438;-1.528;2023-04-03T16:15:09;13.60;;;6.20;;
64061;SDS011;50308;47.438;-1.528;2023-04-03T16:17:35;16.65;;;6.88;;
64061;SDS011;50308;47.438;-1.528;2023-04-03T16:20:03;15.38;;;6.15;;
64061;SDS011;50308;47.438;-1.528;2023-04-03T16:22:31;13.35;;;6.47;;
64061;SDS011;50308;47.438;-1.528;2023-04-03T16:24:57;16.50;;;6.38;;
64061;SDS011;50308;47.438;-1.528;2023-04-03T16:27:22;16.63;;;8.55;;
64061;SDS011;50308;47.438;-1.528;2023-04-03T16:29:52;12.80;;;5.95;;
64061;SDS011;50308;47.438;-1.528;2023-04-03T16:32:19;13.18;;;6.28;;
64061;SDS011;50308;47.438;-1.528;2023-04-03T16:34:45;11.32;;;6.30;;
64061;SDS011;50308;47.438;-1.528;2023-04-03T16:37:11;12.63;;;6.63;;
64061;SDS011;50308;47.438;-1.528;2023-04-03T16:39:37;16.33;;;6.90;;
64061;SDS011;50308;47.438;-1.528;2023-04-03T16:42:02;12.60;;;5.90;;
64061;SDS011;50308;47.438;-1.528;2023-04-03T16:44:28;12.68;;;6.15;;
64061;SDS011;50308;47.438;-1.528;2023-04-03T16:46:54;13.48;;;6.90;;
64061;SDS011;50308;47.438;-1.528;2023-04-03T16:49:20;10.27;;;5.57;;
64061;SDS011;50308;47.438;-1.528;2023-04-03T16:51:45;13.70;;;6.30;;
64061;SDS011;50308;47.438;-1.528;2023-04-03T16:54:13;14.35;;;5.97;;
64061;SDS011;50308;47.438;-1.528;2023-04-03T16:56:39;14.07;;;5.63;;
64061;SDS011;50308;47.438;-1.528;2023-04-03T16:59:05;11.15;;;5.43;;
64061;SDS011;50308;47.438;-1.528;2023-04-03T17:01:30;11.52;;;5.05;;
64061;SDS011;50308;47.438;-1.528;2023-04-03T17:03:56;11.18;;;5.47;;
64061;SDS011;50308;47.438;-1.528;2023-04-03T17:06:22;12.50;;;5.10;;
64061;SDS011;50308;47.438;-1.528;2023-04-03T17:08:49;10.00;;;5.32;;
64061;SDS011;50308;47.438;-1.528;2023-04-03T17:11:17;14.85;;;7.10;;
64061;SDS011;50308;47.438;-1.528;2023-04-03T17:13:43;12.18;;;5.60;;
64061;SDS011;50308;47.438;-1.528;2023-04-03T17:16:10;13.35;;;5.93;;